sensor_id;sensor_type;location;lat;lon;timestamp;P1;durP1;ratioP1;P2;durP2;ratioP2
5867;SDS011;2960;49.142;7.768;2022-10-19T00:01:40;12.70;;;4.40;;
5867;SDS011;2960;49.142;7.768;2022-10-19T00:04:07;11.03;;;4.20;;
5867;SDS011;2960;49.142;7.768;2022-10-19T00:06:36;12.17;;;4.50;;
5867;SDS011;2960;49.142;7.768;2022-10-19T00:09:04;10.50;;;4.17;;
5867;SDS011;2960;49.142;7.768;2022-10-19T00:11:34;12.03;;;4.80;;
5867;SDS011;2960;49.142;7.768;2022-10-19T00:14:04;11.60;;;4.60;;
5867;SDS011;2960;49.142;7.768;2022-10-19T00:16:34;15.40;;;4.87;;
5867;SDS011;2960;49.142;7.768;2022-10-19T00:19:04;11.50;;;4.50;;
5867;SDS011;2960;49.142;7.768;2022-10-19T00:21:36;11.00;;;4.67;;
5867;SDS011;2960;49.142;7.768;2022-10-19T00:24:03;11.27;;;4.67;;
5867;SDS011;2960;49.142;7.768;2022-10-19T00:26:31;11.97;;;4.57;;
5867;SDS011;2960;49.142;7.768;2022-10-19T00:28:58;11.20;;;4.67;;
5867;SDS011;2960;49.142;7.768;2022-10-19T00:31:25;10.80;;;4.43;;
5867;SDS011;2960;49.142;7.768;2022-10-19T00:33:54;10.67;;;4.40;;
5867;SDS011;2960;49.142;7.768;2022-10-19T00:36:24;11.03;;;4.43;;
5867;SDS011;2960;49.142;7.768;2022-10-19T00:38:54;10.80;;;4.40;;
5867;SDS011;2960;49.142;7.768;2022-10-19T00:41:26;10.50;;;4.17;;
5867;SDS011;2960;49.142;7.768;2022-10-19T00:43:56;10.90;;;4.40;;
5867;SDS011;2960;49.142;7.768;2022-10-19T00:46:27;10.93;;;4.43;;
5867;SDS011;2960;49.142;7.768;2022-10-19T00:48:57;10.90;;;4.70;;
5867;SDS011;2960;49.142;7.768;2022-10-19T00:51:27;11.10;;;4.63;;
5867;SDS011;2960;49.142;7.768;2022-10-19T00:54:00;10.70;;;4.17;;
5867;SDS011;2960;49.142;7.768;2022-10-19T00:56:28;11.20;;;4.27;;
5867;SDS011;2960;49.142;7.768;2022-10-19T00:58:56;11.00;;;4.53;;
5867;SDS011;2960;49.142;7.768;2022-10-19T01:01:23;10.57;;;4.23;;
5867;SDS011;2960;49.142;7.768;2022-10-19T01:03:51;11.00;;;4.20;;
5867;SDS011;2960;49.142;7.768;2022-10-19T01:06:18;11.67;;;4.50;;
5867;SDS011;2960;49.142;7.768;2022-10-19T01:08:45;10.60;;;4.27;;
5867;SDS011;2960;49.142;7.768;2022-10-19T01:11:17;10.97;;;4.30;;
5867;SDS011;2960;49.142;7.768;2022-10-19T01:14:05;11.17;;;4.43;;
5867;SDS011;2960;49.142;7.768;2022-10-19T01:16:45;11.00;;;4.40;;
5867;SDS011;2960;49.142;7.768;2022-10-19T01:19:27;10.50;;;4.23;;
5867;SDS011;2960;49.142;7.768;2022-10-19T01:22:33;13.50;;;4.13;;
5867;SDS011;2960;49.142;7.768;2022-10-19T01:25:20;12.27;;;4.70;;
5867;SDS011;2960;49.142;7.768;2022-10-19T01:27:58;10.50;;;3.97;;
5867;SDS011;2960;49.142;7.768;2022-10-19T01:30:41;11.83;;;4.73;;
5867;SDS011;2960;49.142;7.768;2022-10-19T01:33:18;10.97;;;4.70;;
5867;SDS011;2960;49.142;7.768;2022-10-19T01:35:58;13.43;;;4.13;;
5867;SDS011;2960;49.142;7.768;2022-10-19T01:38:35;10.40;;;4.00;;
5867;SDS011;2960;49.142;7.768;2022-10-19T01:41:11;13.13;;;4.23;;
5867;SDS011;2960;49.142;7.768;2022-10-19T01:43:44;10.87;;;4.47;;
5867;SDS011;2960;49.142;7.768;2022-10-19T01:46:20;10.80;;;4.10;;
5867;SDS011;2960;49.142;7.768;2022-10-19T01:48:53;10.37;;;3.97;;
5867;SDS011;2960;49.142;7.768;2022-10-19T01:51:25;10.80;;;4.47;;
5867;SDS011;2960;49.142;7.768;2022-10-19T01:53:57;11.00;;;4.40;;
5867;SDS011;2960;49.142;7.768;2022-10-19T01:56:28;10.53;;;4.20;;
5867;SDS011;2960;49.142;7.768;2022-10-19T01:58:57;10.40;;;4.00;;
5867;SDS011;2960;49.142;7.768;2022-10-19T02:01:29;10.37;;;3.93;;
5867;SDS011;2960;49.142;7.768;2022-10-19T02:03:59;10.40;;;3.80;;
5867;SDS011;2960;49.142;7.768;2022-10-19T02:06:28;11.00;;;4.30;;
5867;SDS011;2960;49.142;7.768;2022-10-19T02:08:55;11.00;;;4.10;;
5867;SDS011;2960;49.142;7.768;2022-10-19T02:11:23;11.77;;;4.10;;
5867;SDS011;2960;49.142;7.768;2022-10-19T02:13:51;10.80;;;4.03;;
5867;SDS011;2960;49.142;7.768;2022-10-19T02:16:22;10.50;;;3.97;;
5867;SDS011;2960;49.142;7.768;2022-10-19T02:18:54;10.70;;;4.23;;
5867;SDS011;2960;49.142;7.768;2022-10-19T02:21:23;13.13;;;4.40;;
5867;SDS011;2960;49.142;7.768;2022-10-19T02:23:52;10.60;;;4.03;;
5867;SDS011;2960;49.142;7.768;2022-10-19T02:26:19;10.30;;;4.00;;
5867;SDS011;2960;49.142;7.768;2022-10-19T02:28:47;10.43;;;3.93;;
5867;SDS011;2960;49.142;7.768;2022-10-19T02:31:15;10.37;;;4.00;;
5867;SDS011;2960;49.142;7.768;2022-10-19T02:33:42;10.43;;;4.10;;
5867;SDS011;2960;49.142;7.768;2022-10-19T02:36:11;10.27;;;3.90;;
5867;SDS011;2960;49.142;7.768;2022-10-19T02:38:39;10.97;;;4.10;;
5867;SDS011;2960;49.142;7.768;2022-10-19T02:41:08;10.57;;;4.13;;
5867;SDS011;2960;49.142;7.768;2022-10-19T02:43:41;12.03;;;3.93;;
5867;SDS011;2960;49.142;7.768;2022-10-19T02:46:14;10.83;;;4.00;;
5867;SDS011;2960;49.142;7.768;2022-10-19T02:48:46;12.17;;;4.00;;
5867;SDS011;2960;49.142;7.768;2022-10-19T02:51:27;10.37;;;3.70;;
5867;SDS011;2960;49.142;7.768;2022-10-19T02:53:56;10.23;;;4.00;;
5867;SDS011;2960;49.142;7.768;2022-10-19T02:56:23;11.47;;;4.27;;
5867;SDS011;2960;49.142;7.768;2022-10-19T02:58:50;10.90;;;4.00;;
5867;SDS011;2960;49.142;7.768;2022-10-19T03:01:17;10.43;;;3.90;;
5867;SDS011;2960;49.142;7.768;2022-10-19T03:03:45;12.00;;;3.67;;
5867;SDS011;2960;49.142;7.768;2022-10-19T03:06:12;16.60;;;4.17;;
5867;SDS011;2960;49.142;7.768;2022-10-19T03:08:41;10.30;;;3.90;;
5867;SDS011;2960;49.142;7.768;2022-10-19T03:11:08;14.20;;;3.97;;
5867;SDS011;2960;49.142;7.768;2022-10-19T03:13:35;10.60;;;3.73;;
5867;SDS011;2960;49.142;7.768;2022-10-19T03:16:06;10.80;;;3.97;;
5867;SDS011;2960;49.142;7.768;2022-10-19T03:18:34;10.40;;;3.90;;
5867;SDS011;2960;49.142;7.768;2022-10-19T03:21:02;10.80;;;3.90;;
5867;SDS011;2960;49.142;7.768;2022-10-19T03:23:31;10.00;;;3.30;;
5867;SDS011;2960;49.142;7.768;2022-10-19T03:26:03;10.40;;;3.70;;
5867;SDS011;2960;49.142;7.768;2022-10-19T03:28:31;10.30;;;3.73;;
5867;SDS011;2960;49.142;7.768;2022-10-19T03:30:59;11.90;;;3.67;;
5867;SDS011;2960;49.142;7.768;2022-10-19T03:33:26;10.60;;;3.70;;
5867;SDS011;2960;49.142;7.768;2022-10-19T03:38:38;10.30;;;3.60;;
5867;SDS011;2960;49.142;7.768;2022-10-19T03:41:07;10.50;;;3.80;;
5867;SDS011;2960;49.142;7.768;2022-10-19T03:43:36;10.10;;;3.60;;
5867;SDS011;2960;49.142;7.768;2022-10-19T03:46:05;10.23;;;3.60;;
5867;SDS011;2960;49.142;7.768;2022-10-19T03:48:32;10.53;;;4.07;;
5867;SDS011;2960;49.142;7.768;2022-10-19T03:51:00;10.20;;;3.40;;
5867;SDS011;2960;49.142;7.768;2022-10-19T03:53:29;10.30;;;3.70;;
5867;SDS011;2960;49.142;7.768;2022-10-19T03:56:00;11.57;;;3.77;;
5867;SDS011;2960;49.142;7.768;2022-10-19T03:58:31;10.17;;;3.40;;
5867;SDS011;2960;49.142;7.768;2022-10-19T04:01:01;10.03;;;3.30;;
5867;SDS011;2960;49.142;7.768;2022-10-19T04:03:34;10.03;;;3.27;;
5867;SDS011;2960;49.142;7.768;2022-10-19T04:06:02;10.27;;;3.30;;
5867;SDS011;2960;49.142;7.768;2022-10-19T04:08:31;9.80;;;3.00;;
5867;SDS011;2960;49.142;7.768;2022-10-19T04:10:58;9.87;;;3.00;;
5867;SDS011;2960;49.142;7.768;2022-10-19T04:13:26;9.87;;;3.10;;
5867;SDS011;2960;49.142;7.768;2022-10-19T04:15:55;10.00;;;3.30;;
5867;SDS011;2960;49.142;7.768;2022-10-19T04:18:22;10.20;;;3.20;;
5867;SDS011;2960;49.142;7.768;2022-10-19T04:20:55;10.10;;;3.20;;
5867;SDS011;2960;49.142;7.768;2022-10-19T04:23:23;9.93;;;3.30;;
5867;SDS011;2960;49.142;7.768;2022-10-19T04:25:57;10.10;;;3.30;;
5867;SDS011;2960;49.142;7.768;2022-10-19T04:28:25;9.93;;;3.20;;
5867;SDS011;2960;49.142;7.768;2022-10-19T04:30:52;10.10;;;3.30;;
5867;SDS011;2960;49.142;7.768;2022-10-19T04:33:22;11.67;;;3.57;;
5867;SDS011;2960;49.142;7.768;2022-10-19T04:35:49;9.63;;;2.90;;
5867;SDS011;2960;49.142;7.768;2022-10-19T04:38:16;10.00;;;3.33;;
5867;SDS011;2960;49.142;7.768;2022-10-19T04:40:43;9.90;;;2.90;;
5867;SDS011;2960;49.142;7.768;2022-10-19T04:43:12;10.10;;;3.33;;
5867;SDS011;2960;49.142;7.768;2022-10-19T04:45:40;10.60;;;3.10;;
5867;SDS011;2960;49.142;7.768;2022-10-19T04:48:08;10.03;;;3.17;;
5867;SDS011;2960;49.142;7.768;2022-10-19T04:50:35;9.70;;;3.00;;
5867;SDS011;2960;49.142;7.768;2022-10-19T04:53:02;9.73;;;3.07;;
5867;SDS011;2960;49.142;7.768;2022-10-19T04:55:29;10.27;;;3.20;;
5867;SDS011;2960;49.142;7.768;2022-10-19T04:57:56;9.70;;;2.90;;
5867;SDS011;2960;49.142;7.768;2022-10-19T05:00:23;10.37;;;3.03;;
5867;SDS011;2960;49.142;7.768;2022-10-19T05:02:56;10.00;;;2.90;;
5867;SDS011;2960;49.142;7.768;2022-10-19T05:05:24;9.57;;;2.70;;
5867;SDS011;2960;49.142;7.768;2022-10-19T05:07:51;10.00;;;3.10;;
5867;SDS011;2960;49.142;7.768;2022-10-19T05:10:18;9.93;;;2.90;;
5867;SDS011;2960;49.142;7.768;2022-10-19T05:12:45;10.10;;;2.90;;
5867;SDS011;2960;49.142;7.768;2022-10-19T05:15:12;10.00;;;3.27;;
5867;SDS011;2960;49.142;7.768;2022-10-19T05:17:40;10.17;;;3.17;;
5867;SDS011;2960;49.142;7.768;2022-10-19T05:20:07;11.33;;;3.13;;
5867;SDS011;2960;49.142;7.768;2022-10-19T05:22:36;9.90;;;3.10;;
5867;SDS011;2960;49.142;7.768;2022-10-19T05:25:04;10.10;;;2.97;;
5867;SDS011;2960;49.142;7.768;2022-10-19T05:27:32;9.83;;;3.20;;
5867;SDS011;2960;49.142;7.768;2022-10-19T05:30:00;10.10;;;3.07;;
5867;SDS011;2960;49.142;7.768;2022-10-19T05:32:27;11.83;;;3.30;;
5867;SDS011;2960;49.142;7.768;2022-10-19T05:34:54;9.93;;;3.20;;
5867;SDS011;2960;49.142;7.768;2022-10-19T05:37:21;9.73;;;3.00;;
5867;SDS011;2960;49.142;7.768;2022-10-19T05:39:51;10.30;;;3.13;;
5867;SDS011;2960;49.142;7.768;2022-10-19T05:42:19;9.87;;;3.00;;
5867;SDS011;2960;49.142;7.768;2022-10-19T05:44:46;9.67;;;2.80;;
5867;SDS011;2960;49.142;7.768;2022-10-19T05:47:13;10.10;;;2.77;;
5867;SDS011;2960;49.142;7.768;2022-10-19T05:49:40;13.13;;;3.20;;
5867;SDS011;2960;49.142;7.768;2022-10-19T05:52:07;9.80;;;3.00;;
5867;SDS011;2960;49.142;7.768;2022-10-19T05:54:35;9.63;;;3.00;;
5867;SDS011;2960;49.142;7.768;2022-10-19T05:57:04;9.93;;;3.17;;
5867;SDS011;2960;49.142;7.768;2022-10-19T05:59:31;10.97;;;3.27;;
5867;SDS011;2960;49.142;7.768;2022-10-19T06:01:58;9.90;;;2.90;;
5867;SDS011;2960;49.142;7.768;2022-10-19T06:04:25;9.97;;;3.23;;
5867;SDS011;2960;49.142;7.768;2022-10-19T06:06:52;9.60;;;2.90;;
5867;SDS011;2960;49.142;7.768;2022-10-19T06:09:19;9.87;;;3.20;;
5867;SDS011;2960;49.142;7.768;2022-10-19T06:11:46;11.60;;;3.17;;
5867;SDS011;2960;49.142;7.768;2022-10-19T06:14:15;10.10;;;3.70;;
5867;SDS011;2960;49.142;7.768;2022-10-19T06:16:42;10.07;;;3.50;;
5867;SDS011;2960;49.142;7.768;2022-10-19T06:19:10;10.00;;;3.43;;
5867;SDS011;2960;49.142;7.768;2022-10-19T06:21:37;10.40;;;3.50;;
5867;SDS011;2960;49.142;7.768;2022-10-19T06:24:05;10.40;;;3.83;;
5867;SDS011;2960;49.142;7.768;2022-10-19T06:26:33;10.17;;;3.63;;
5867;SDS011;2960;49.142;7.768;2022-10-19T06:29:01;14.63;;;3.70;;
5867;SDS011;2960;49.142;7.768;2022-10-19T06:31:31;9.83;;;3.30;;
5867;SDS011;2960;49.142;7.768;2022-10-19T06:34:02;10.40;;;3.97;;
5867;SDS011;2960;49.142;7.768;2022-10-19T06:36:30;9.83;;;3.37;;
5867;SDS011;2960;49.142;7.768;2022-10-19T06:38:57;9.90;;;3.20;;
5867;SDS011;2960;49.142;7.768;2022-10-19T06:41:25;9.70;;;3.10;;
5867;SDS011;2960;49.142;7.768;2022-10-19T06:43:53;10.83;;;3.57;;
5867;SDS011;2960;49.142;7.768;2022-10-19T06:46:22;10.17;;;3.60;;
5867;SDS011;2960;49.142;7.768;2022-10-19T06:48:53;10.00;;;3.37;;
5867;SDS011;2960;49.142;7.768;2022-10-19T06:51:22;10.87;;;3.60;;
5867;SDS011;2960;49.142;7.768;2022-10-19T06:53:50;10.00;;;3.30;;
5867;SDS011;2960;49.142;7.768;2022-10-19T06:56:18;9.67;;;2.97;;
5867;SDS011;2960;49.142;7.768;2022-10-19T06:58:45;10.23;;;3.50;;
5867;SDS011;2960;49.142;7.768;2022-10-19T07:01:14;10.17;;;3.63;;
5867;SDS011;2960;49.142;7.768;2022-10-19T07:03:41;10.13;;;3.30;;
5867;SDS011;2960;49.142;7.768;2022-10-19T07:06:10;10.50;;;3.10;;
5867;SDS011;2960;49.142;7.768;2022-10-19T07:08:39;10.40;;;3.60;;
5867;SDS011;2960;49.142;7.768;2022-10-19T07:11:09;19.10;;;3.77;;
5867;SDS011;2960;49.142;7.768;2022-10-19T07:13:39;10.43;;;3.33;;
5867;SDS011;2960;49.142;7.768;2022-10-19T07:16:07;12.43;;;3.73;;
5867;SDS011;2960;49.142;7.768;2022-10-19T07:18:38;10.30;;;3.60;;
5867;SDS011;2960;49.142;7.768;2022-10-19T07:21:07;11.53;;;4.00;;
5867;SDS011;2960;49.142;7.768;2022-10-19T07:23:38;10.10;;;3.33;;
5867;SDS011;2960;49.142;7.768;2022-10-19T07:26:07;10.73;;;3.90;;
5867;SDS011;2960;49.142;7.768;2022-10-19T07:28:38;10.70;;;3.67;;
5867;SDS011;2960;49.142;7.768;2022-10-19T07:31:07;10.80;;;3.70;;
5867;SDS011;2960;49.142;7.768;2022-10-19T07:33:36;11.00;;;4.13;;
5867;SDS011;2960;49.142;7.768;2022-10-19T07:36:04;11.00;;;4.07;;
5867;SDS011;2960;49.142;7.768;2022-10-19T07:38:35;11.40;;;3.90;;
5867;SDS011;2960;49.142;7.768;2022-10-19T07:41:04;11.60;;;4.20;;
5867;SDS011;2960;49.142;7.768;2022-10-19T07:43:35;10.90;;;3.80;;
5867;SDS011;2960;49.142;7.768;2022-10-19T07:46:03;12.83;;;4.10;;
5867;SDS011;2960;49.142;7.768;2022-10-19T07:48:32;11.23;;;4.37;;
5867;SDS011;2960;49.142;7.768;2022-10-19T07:51:02;12.83;;;4.37;;
5867;SDS011;2960;49.142;7.768;2022-10-19T07:53:32;11.13;;;3.93;;
5867;SDS011;2960;49.142;7.768;2022-10-19T07:56:04;12.20;;;4.47;;
5867;SDS011;2960;49.142;7.768;2022-10-19T07:58:34;11.23;;;4.03;;
5867;SDS011;2960;49.142;7.768;2022-10-19T08:01:02;10.80;;;4.00;;
5867;SDS011;2960;49.142;7.768;2022-10-19T08:03:32;11.83;;;4.30;;
5867;SDS011;2960;49.142;7.768;2022-10-19T08:06:00;12.03;;;4.60;;
5867;SDS011;2960;49.142;7.768;2022-10-19T08:08:28;11.10;;;4.07;;
5867;SDS011;2960;49.142;7.768;2022-10-19T08:10:56;12.20;;;4.60;;
5867;SDS011;2960;49.142;7.768;2022-10-19T08:13:24;12.30;;;4.03;;
5867;SDS011;2960;49.142;7.768;2022-10-19T08:15:51;12.67;;;4.20;;
5867;SDS011;2960;49.142;7.768;2022-10-19T08:18:20;11.97;;;4.27;;
5867;SDS011;2960;49.142;7.768;2022-10-19T08:20:47;11.37;;;4.13;;
5867;SDS011;2960;49.142;7.768;2022-10-19T08:23:15;12.30;;;4.53;;
5867;SDS011;2960;49.142;7.768;2022-10-19T08:25:42;11.83;;;4.50;;
5867;SDS011;2960;49.142;7.768;2022-10-19T08:28:09;11.73;;;4.30;;
5867;SDS011;2960;49.142;7.768;2022-10-19T08:30:37;11.77;;;4.13;;
5867;SDS011;2960;49.142;7.768;2022-10-19T08:33:04;11.10;;;4.33;;
5867;SDS011;2960;49.142;7.768;2022-10-19T08:35:32;13.00;;;4.57;;
5867;SDS011;2960;49.142;7.768;2022-10-19T08:37:59;12.90;;;4.70;;
5867;SDS011;2960;49.142;7.768;2022-10-19T08:40:27;13.07;;;5.00;;
5867;SDS011;2960;49.142;7.768;2022-10-19T08:42:57;12.60;;;4.73;;
5867;SDS011;2960;49.142;7.768;2022-10-19T08:45:37;12.97;;;4.90;;
5867;SDS011;2960;49.142;7.768;2022-10-19T08:48:23;13.27;;;4.43;;
5867;SDS011;2960;49.142;7.768;2022-10-19T08:50:53;12.90;;;4.60;;
5867;SDS011;2960;49.142;7.768;2022-10-19T08:53:23;12.53;;;4.70;;
5867;SDS011;2960;49.142;7.768;2022-10-19T08:56:07;13.03;;;5.10;;
5867;SDS011;2960;49.142;7.768;2022-10-19T08:58:49;11.40;;;4.23;;
5867;SDS011;2960;49.142;7.768;2022-10-19T09:01:32;12.63;;;4.70;;
5867;SDS011;2960;49.142;7.768;2022-10-19T09:04:07;13.57;;;5.10;;
5867;SDS011;2960;49.142;7.768;2022-10-19T09:06:45;11.87;;;4.20;;
5867;SDS011;2960;49.142;7.768;2022-10-19T09:09:22;11.80;;;4.43;;
5867;SDS011;2960;49.142;7.768;2022-10-19T09:11:50;12.50;;;4.67;;
5867;SDS011;2960;49.142;7.768;2022-10-19T09:14:24;13.30;;;4.53;;
5867;SDS011;2960;49.142;7.768;2022-10-19T09:16:58;12.93;;;4.50;;
5867;SDS011;2960;49.142;7.768;2022-10-19T09:19:31;11.67;;;4.40;;
5867;SDS011;2960;49.142;7.768;2022-10-19T09:21:59;12.13;;;4.33;;
5867;SDS011;2960;49.142;7.768;2022-10-19T09:24:32;12.53;;;4.47;;
5867;SDS011;2960;49.142;7.768;2022-10-19T09:27:10;11.80;;;4.57;;
5867;SDS011;2960;49.142;7.768;2022-10-19T09:29:47;12.30;;;4.43;;
5867;SDS011;2960;49.142;7.768;2022-10-19T09:32:22;12.67;;;4.50;;
5867;SDS011;2960;49.142;7.768;2022-10-19T09:34:53;12.30;;;4.57;;
5867;SDS011;2960;49.142;7.768;2022-10-19T09:37:26;11.10;;;3.90;;
5867;SDS011;2960;49.142;7.768;2022-10-19T09:39:55;11.90;;;4.20;;
5867;SDS011;2960;49.142;7.768;2022-10-19T09:42:22;12.20;;;4.27;;
5867;SDS011;2960;49.142;7.768;2022-10-19T09:44:53;12.13;;;4.37;;
5867;SDS011;2960;49.142;7.768;2022-10-19T09:47:30;13.13;;;4.90;;
5867;SDS011;2960;49.142;7.768;2022-10-19T09:50:07;11.77;;;4.50;;
5867;SDS011;2960;49.142;7.768;2022-10-19T09:52:42;11.93;;;4.50;;
5867;SDS011;2960;49.142;7.768;2022-10-19T09:55:18;12.10;;;4.37;;
5867;SDS011;2960;49.142;7.768;2022-10-19T09:57:59;11.30;;;4.23;;
5867;SDS011;2960;49.142;7.768;2022-10-19T10:00:34;11.63;;;4.40;;
5867;SDS011;2960;49.142;7.768;2022-10-19T10:03:05;13.20;;;5.10;;
5867;SDS011;2960;49.142;7.768;2022-10-19T10:05:33;11.17;;;4.40;;
5867;SDS011;2960;49.142;7.768;2022-10-19T10:08:03;12.57;;;4.67;;
5867;SDS011;2960;49.142;7.768;2022-10-19T10:10:39;12.43;;;4.70;;
5867;SDS011;2960;49.142;7.768;2022-10-19T10:13:11;16.10;;;5.57;;
5867;SDS011;2960;49.142;7.768;2022-10-19T10:15:43;12.50;;;5.00;;
5867;SDS011;2960;49.142;7.768;2022-10-19T10:18:16;12.03;;;4.50;;
5867;SDS011;2960;49.142;7.768;2022-10-19T10:20:55;14.90;;;5.50;;
5867;SDS011;2960;49.142;7.768;2022-10-19T10:23:27;13.27;;;4.87;;
5867;SDS011;2960;49.142;7.768;2022-10-19T10:26:00;13.23;;;5.53;;
5867;SDS011;2960;49.142;7.768;2022-10-19T10:28:28;12.80;;;4.83;;
5867;SDS011;2960;49.142;7.768;2022-10-19T10:30:58;14.50;;;5.83;;
5867;SDS011;2960;49.142;7.768;2022-10-19T10:33:30;12.20;;;5.00;;
5867;SDS011;2960;49.142;7.768;2022-10-19T10:36:01;13.00;;;5.40;;
5867;SDS011;2960;49.142;7.768;2022-10-19T10:38:31;12.27;;;4.60;;
5867;SDS011;2960;49.142;7.768;2022-10-19T10:41:02;11.40;;;4.20;;
5867;SDS011;2960;49.142;7.768;2022-10-19T10:43:37;14.50;;;5.10;;
5867;SDS011;2960;49.142;7.768;2022-10-19T10:46:19;13.67;;;4.30;;
5867;SDS011;2960;49.142;7.768;2022-10-19T10:48:55;14.37;;;5.03;;
5867;SDS011;2960;49.142;7.768;2022-10-19T10:51:25;12.87;;;4.43;;
5867;SDS011;2960;49.142;7.768;2022-10-19T10:54:05;12.30;;;4.43;;
5867;SDS011;2960;49.142;7.768;2022-10-19T10:56:41;12.47;;;4.57;;
5867;SDS011;2960;49.142;7.768;2022-10-19T10:59:11;11.70;;;4.50;;
5867;SDS011;2960;49.142;7.768;2022-10-19T11:01:47;12.83;;;4.90;;
5867;SDS011;2960;49.142;7.768;2022-10-19T11:04:27;12.30;;;4.50;;
5867;SDS011;2960;49.142;7.768;2022-10-19T11:07:02;12.50;;;4.13;;
5867;SDS011;2960;49.142;7.768;2022-10-19T11:09:41;11.30;;;3.97;;
5867;SDS011;2960;49.142;7.768;2022-10-19T11:12:12;12.30;;;4.50;;
5867;SDS011;2960;49.142;7.768;2022-10-19T11:14:45;11.90;;;4.20;;
5867;SDS011;2960;49.142;7.768;2022-10-19T11:17:18;11.43;;;4.23;;
5867;SDS011;2960;49.142;7.768;2022-10-19T11:19:50;12.63;;;4.43;;
5867;SDS011;2960;49.142;7.768;2022-10-19T11:22:18;12.10;;;4.30;;
5867;SDS011;2960;49.142;7.768;2022-10-19T11:24:56;11.60;;;4.50;;
5867;SDS011;2960;49.142;7.768;2022-10-19T11:27:44;13.43;;;4.53;;
5867;SDS011;2960;49.142;7.768;2022-10-19T11:30:23;12.20;;;4.20;;
5867;SDS011;2960;49.142;7.768;2022-10-19T11:32:55;11.00;;;4.07;;
5867;SDS011;2960;49.142;7.768;2022-10-19T11:35:32;11.67;;;4.30;;
5867;SDS011;2960;49.142;7.768;2022-10-19T11:41:05;11.83;;;4.27;;
5867;SDS011;2960;49.142;7.768;2022-10-19T11:43:46;12.17;;;4.43;;
5867;SDS011;2960;49.142;7.768;2022-10-19T11:46:31;12.03;;;4.50;;
5867;SDS011;2960;49.142;7.768;2022-10-19T11:49:11;11.93;;;4.57;;
5867;SDS011;2960;49.142;7.768;2022-10-19T11:51:52;11.27;;;4.57;;
5867;SDS011;2960;49.142;7.768;2022-10-19T11:54:28;11.57;;;4.20;;
5867;SDS011;2960;49.142;7.768;2022-10-19T11:57:08;11.17;;;4.17;;
5867;SDS011;2960;49.142;7.768;2022-10-19T11:59:42;11.27;;;4.47;;
5867;SDS011;2960;49.142;7.768;2022-10-19T12:05:31;11.67;;;4.60;;
5867;SDS011;2960;49.142;7.768;2022-10-19T12:08:12;10.80;;;3.90;;
5867;SDS011;2960;49.142;7.768;2022-10-19T12:11:00;11.43;;;4.50;;
5867;SDS011;2960;49.142;7.768;2022-10-19T12:13:35;11.10;;;4.30;;
5867;SDS011;2960;49.142;7.768;2022-10-19T12:16:07;10.63;;;3.83;;
5867;SDS011;2960;49.142;7.768;2022-10-19T12:18:38;13.03;;;4.80;;
5867;SDS011;2960;49.142;7.768;2022-10-19T12:21:10;11.33;;;4.57;;
5867;SDS011;2960;49.142;7.768;2022-10-19T12:23:46;12.60;;;4.70;;
5867;SDS011;2960;49.142;7.768;2022-10-19T12:26:15;12.80;;;5.27;;
5867;SDS011;2960;49.142;7.768;2022-10-19T12:28:45;11.73;;;4.43;;
5867;SDS011;2960;49.142;7.768;2022-10-19T12:31:16;11.70;;;4.53;;
5867;SDS011;2960;49.142;7.768;2022-10-19T12:33:44;12.23;;;4.70;;
5867;SDS011;2960;49.142;7.768;2022-10-19T12:36:21;11.80;;;4.07;;
5867;SDS011;2960;49.142;7.768;2022-10-19T12:39:03;11.10;;;4.17;;
5867;SDS011;2960;49.142;7.768;2022-10-19T12:41:42;10.60;;;4.23;;
5867;SDS011;2960;49.142;7.768;2022-10-19T12:47:36;11.83;;;4.97;;
5867;SDS011;2960;49.142;7.768;2022-10-19T12:50:03;12.50;;;4.80;;
5867;SDS011;2960;49.142;7.768;2022-10-19T12:52:35;11.10;;;4.53;;
5867;SDS011;2960;49.142;7.768;2022-10-19T12:55:23;13.20;;;5.13;;
5867;SDS011;2960;49.142;7.768;2022-10-19T12:57:56;12.90;;;4.97;;
5867;SDS011;2960;49.142;7.768;2022-10-19T13:00:28;12.07;;;4.83;;
5867;SDS011;2960;49.142;7.768;2022-10-19T13:03:00;12.03;;;5.00;;
5867;SDS011;2960;49.142;7.768;2022-10-19T13:05:31;10.80;;;4.07;;
5867;SDS011;2960;49.142;7.768;2022-10-19T13:08:02;11.23;;;4.10;;
5867;SDS011;2960;49.142;7.768;2022-10-19T13:10:33;11.67;;;4.77;;
5867;SDS011;2960;49.142;7.768;2022-10-19T13:13:00;12.60;;;4.80;;
5867;SDS011;2960;49.142;7.768;2022-10-19T13:21:48;12.33;;;4.93;;
5867;SDS011;2960;49.142;7.768;2022-10-19T13:24:23;11.97;;;4.90;;
5867;SDS011;2960;49.142;7.768;2022-10-19T13:30:02;11.40;;;4.63;;
5867;SDS011;2960;49.142;7.768;2022-10-19T13:32:32;12.87;;;5.13;;
5867;SDS011;2960;49.142;7.768;2022-10-19T13:35:25;11.80;;;4.60;;
5867;SDS011;2960;49.142;7.768;2022-10-19T13:40:59;11.10;;;4.40;;
5867;SDS011;2960;49.142;7.768;2022-10-19T13:43:38;12.37;;;5.37;;
5867;SDS011;2960;49.142;7.768;2022-10-19T13:46:18;12.30;;;5.00;;
5867;SDS011;2960;49.142;7.768;2022-10-19T13:49:10;12.20;;;4.87;;
5867;SDS011;2960;49.142;7.768;2022-10-19T13:52:14;11.53;;;4.73;;
5867;SDS011;2960;49.142;7.768;2022-10-19T13:55:10;12.00;;;4.60;;
5867;SDS011;2960;49.142;7.768;2022-10-19T13:58:18;11.70;;;5.00;;
5867;SDS011;2960;49.142;7.768;2022-10-19T14:01:31;11.07;;;4.50;;
5867;SDS011;2960;49.142;7.768;2022-10-19T14:04:12;12.20;;;5.00;;
5867;SDS011;2960;49.142;7.768;2022-10-19T14:06:48;10.67;;;4.30;;
5867;SDS011;2960;49.142;7.768;2022-10-19T14:09:36;11.27;;;4.30;;
5867;SDS011;2960;49.142;7.768;2022-10-19T14:12:17;11.20;;;4.77;;
5867;SDS011;2960;49.142;7.768;2022-10-19T14:14:50;10.83;;;4.30;;
5867;SDS011;2960;49.142;7.768;2022-10-19T14:17:19;11.03;;;4.67;;
5867;SDS011;2960;49.142;7.768;2022-10-19T14:19:50;11.00;;;4.40;;
5867;SDS011;2960;49.142;7.768;2022-10-19T14:22:21;10.77;;;4.40;;
5867;SDS011;2960;49.142;7.768;2022-10-19T14:25:00;12.50;;;4.33;;
5867;SDS011;2960;49.142;7.768;2022-10-19T14:27:31;11.33;;;4.53;;
5867;SDS011;2960;49.142;7.768;2022-10-19T14:30:01;10.83;;;4.40;;
5867;SDS011;2960;49.142;7.768;2022-10-19T14:32:31;10.90;;;4.40;;
5867;SDS011;2960;49.142;7.768;2022-10-19T14:35:02;10.70;;;4.13;;
5867;SDS011;2960;49.142;7.768;2022-10-19T14:37:33;10.40;;;3.90;;
5867;SDS011;2960;49.142;7.768;2022-10-19T14:40:04;10.50;;;3.80;;
5867;SDS011;2960;49.142;7.768;2022-10-19T14:42:42;11.10;;;4.33;;
5867;SDS011;2960;49.142;7.768;2022-10-19T14:45:13;10.50;;;3.97;;
5867;SDS011;2960;49.142;7.768;2022-10-19T14:47:50;11.00;;;4.30;;
5867;SDS011;2960;49.142;7.768;2022-10-19T14:50:27;12.40;;;4.17;;
5867;SDS011;2960;49.142;7.768;2022-10-19T14:53:19;11.00;;;3.77;;
5867;SDS011;2960;49.142;7.768;2022-10-19T14:55:57;10.37;;;3.90;;
5867;SDS011;2960;49.142;7.768;2022-10-19T14:58:27;11.20;;;4.50;;
5867;SDS011;2960;49.142;7.768;2022-10-19T15:01:03;10.47;;;3.90;;
5867;SDS011;2960;49.142;7.768;2022-10-19T15:03:31;10.77;;;4.23;;
5867;SDS011;2960;49.142;7.768;2022-10-19T15:06:00;10.80;;;4.20;;
5867;SDS011;2960;49.142;7.768;2022-10-19T15:08:36;10.87;;;3.93;;
5867;SDS011;2960;49.142;7.768;2022-10-19T15:11:07;10.80;;;3.70;;
5867;SDS011;2960;49.142;7.768;2022-10-19T15:13:52;10.93;;;3.83;;
5867;SDS011;2960;49.142;7.768;2022-10-19T15:16:39;10.67;;;4.13;;
5867;SDS011;2960;49.142;7.768;2022-10-19T15:19:13;10.80;;;4.03;;
5867;SDS011;2960;49.142;7.768;2022-10-19T15:21:44;11.10;;;4.20;;
5867;SDS011;2960;49.142;7.768;2022-10-19T15:24:20;11.00;;;3.90;;
5867;SDS011;2960;49.142;7.768;2022-10-19T15:26:52;10.90;;;4.43;;
5867;SDS011;2960;49.142;7.768;2022-10-19T15:29:21;10.40;;;4.33;;
5867;SDS011;2960;49.142;7.768;2022-10-19T15:31:55;10.90;;;4.63;;
5867;SDS011;2960;49.142;7.768;2022-10-19T15:34:38;11.00;;;4.50;;
5867;SDS011;2960;49.142;7.768;2022-10-19T15:37:12;10.50;;;4.43;;
5867;SDS011;2960;49.142;7.768;2022-10-19T15:39:44;10.33;;;3.83;;
5867;SDS011;2960;49.142;7.768;2022-10-19T15:42:21;11.90;;;4.40;;
5867;SDS011;2960;49.142;7.768;2022-10-19T15:45:01;10.60;;;3.83;;
5867;SDS011;2960;49.142;7.768;2022-10-19T15:47:30;10.90;;;4.30;;
5867;SDS011;2960;49.142;7.768;2022-10-19T15:49:58;11.20;;;4.20;;
5867;SDS011;2960;49.142;7.768;2022-10-19T15:52:26;10.50;;;4.10;;
5867;SDS011;2960;49.142;7.768;2022-10-19T15:54:57;11.03;;;4.30;;
5867;SDS011;2960;49.142;7.768;2022-10-19T15:57:27;10.90;;;4.33;;